Time;durP1;ratioP1;P1;durP2;ratioP2;P2;SDS_P1;SDS_P2;PMS_P1;PMS_P2;Temp;Humidity;BMP_temperature;BMP_pressure;BME280_temperature;BME280_humidity;BME280_pressure;Samples;Min_cycle;Max_cycle;Signal;HPM_P1;HPM_P2
2022/04/27 00:00:28;;;;;;;0.30;0.20;;;7.60;99.90;;;;;;5108001;28;20205;-85
2022/04/27 00:02:55;;;;;;;0.40;0.35;;;7.60;99.90;;;;;;5108227;28;20234;-84
2022/04/27 00:05:23;;;;;;;0.40;0.20;;;7.60;99.90;;;;;;5107132;28;20224;-86
2022/04/27 00:07:50;;;;;;;0.30;0.20;;;7.60;99.90;;;;;;5096049;28;20277;-86
2022/04/27 00:10:19;;;;;;;0.30;0.20;;;7.50;99.90;;;;;;5108248;28;20198;-86
2022/04/27 00:12:49;;;;;;;1.17;0.98;;;7.50;99.90;;;;;;5107997;28;20665;-86
2022/04/27 00:15:20;;;;;;;0.52;0.35;;;7.50;99.90;;;;;;5107643;28;20198;-85
2022/04/27 00:17:48;;;;;;;0.85;0.85;;;7.50;99.90;;;;;;5107756;28;20557;-86
2022/04/27 00:20:16;;;;;;;0.77;0.77;;;7.50;99.90;;;;;;5108003;28;20222;-85
2022/04/27 00:22:44;;;;;;;0.35;0.30;;;7.50;99.90;;;;;;5107968;28;20707;-85
2022/04/27 00:25:11;;;;;;;0.40;0.40;;;7.50;99.90;;;;;;5107629;28;20564;-85
2022/04/27 00:27:40;;;;;;;0.30;0.10;;;7.60;99.90;;;;;;5107866;28;20202;-86
2022/04/27 00:30:10;;;;;;;0.73;0.73;;;7.80;99.90;;;;;;5107998;28;20500;-85
2022/04/27 00:32:38;;;;;;;0.30;0.10;;;7.60;99.90;;;;;;5108027;28;20236;-86
2022/04/27 00:35:08;;;;;;;0.30;0.20;;;7.70;99.90;;;;;;5110972;28;20229;-86
2022/04/27 00:37:35;;;;;;;0.55;0.50;;;7.50;99.90;;;;;;5111368;28;20205;-85
2022/04/27 00:40:02;;;;;;;0.30;0.30;;;7.50;99.90;;;;;;5111678;28;20206;-86
2022/04/27 00:42:30;;;;;;;0.82;0.47;;;7.60;99.90;;;;;;5111344;28;20226;-85
2022/04/27 00:44:56;;;;;;;0.30;0.20;;;7.50;99.90;;;;;;5110985;28;20194;-86
2022/04/27 00:47:26;;;;;;;0.30;0.10;;;7.50;99.90;;;;;;5110197;28;20200;-85
2022/04/27 00:49:53;;;;;;;1.00;0.57;;;7.50;99.90;;;;;;5099975;28;20202;-85
2022/04/27 00:52:22;;;;;;;0.40;0.38;;;7.40;99.90;;;;;;5111035;28;20672;-85
2022/04/27 00:54:51;;;;;;;0.30;0.20;;;7.40;99.90;;;;;;5111678;28;20616;-86
2022/04/27 00:57:19;;;;;;;0.40;0.32;;;7.40;99.90;;;;;;5110029;28;20570;-86
2022/04/27 00:59:47;;;;;;;0.30;0.10;;;7.40;99.90;;;;;;5110673;28;20736;-86
2022/04/27 01:02:14;;;;;;;0.30;0.10;;;7.40;99.90;;;;;;5110609;28;20229;-85
2022/04/27 01:04:43;;;;;;;0.50;0.40;;;7.40;99.90;;;;;;5111035;28;20206;-85
2022/04/27 01:07:11;;;;;;;2.42;0.55;;;7.50;99.90;;;;;;5110342;28;20528;-86
2022/04/27 01:09:38;;;;;;;0.30;0.25;;;7.50;99.90;;;;;;5111014;28;20202;-85
2022/04/27 01:12:07;;;;;;;0.30;0.10;;;7.50;99.90;;;;;;5110596;28;20204;-85
2022/04/27 01:14:42;;;;;;;0.40;0.30;;;7.60;99.90;;;;;;5110824;28;20205;-86
2022/04/27 01:17:11;;;;;;;0.40;0.25;;;7.60;99.90;;;;;;5109815;28;20202;-86
2022/04/27 01:19:38;;;;;;;0.50;0.30;;;7.40;99.90;;;;;;5110719;28;20206;-86
2022/04/27 01:22:07;;;;;;;0.40;0.40;;;7.40;99.90;;;;;;5110229;28;20710;-86
2022/04/27 01:24:36;;;;;;;0.30;0.10;;;7.60;99.90;;;;;;5110957;28;20209;-85
2022/04/27 01:27:04;;;;;;;0.50;0.40;;;7.60;99.90;;;;;;5109464;28;20217;-85
2022/04/27 01:29:32;;;;;;;1.17;1.08;;;7.60;99.90;;;;;;5110487;28;20668;-86
2022/04/27 01:32:01;;;;;;;0.47;0.47;;;7.60;99.90;;;;;;5110297;28;20660;-86
2022/04/27 01:34:29;;;;;;;0.38;0.38;;;7.60;99.90;;;;;;5110007;28;20698;-86
2022/04/27 01:37:59;;;;;;;0.30;0.17;;;7.80;99.90;;;;;;5109451;28;20202;-86
2022/04/27 01:39:48;;;;;;;0.40;0.40;;;7.60;99.90;;;;;;5106939;28;20210;-86
2022/04/27 01:42:16;;;;;;;0.40;0.40;;;7.60;99.90;;;;;;5102822;28;20636;-85
2022/04/27 01:44:43;;;;;;;0.52;0.40;;;7.70;99.90;;;;;;5109738;28;20213;-86
2022/04/27 01:47:11;;;;;;;0.45;0.43;;;7.60;99.90;;;;;;5109600;28;20202;-85
2022/04/27 01:49:38;;;;;;;0.30;0.20;;;7.60;99.90;;;;;;5108129;28;20260;-86
2022/04/27 01:54:51;;;;;;;0.30;0.10;;;7.70;99.90;;;;;;5109572;28;20201;-86
2022/04/27 01:57:18;;;;;;;0.30;0.30;;;7.70;99.90;;;;;;5109927;28;20209;-86
2022/04/27 01:59:45;;;;;;;0.43;0.40;;;7.70;99.90;;;;;;5110045;28;20676;-86
2022/04/27 02:02:12;;;;;;;0.30;0.28;;;7.70;99.90;;;;;;5109479;28;20247;-86
2022/04/27 02:04:39;;;;;;;0.70;0.45;;;7.90;99.90;;;;;;5110414;28;20755;-86
2022/04/27 02:07:06;;;;;;;0.30;0.10;;;7.90;99.90;;;;;;5109504;28;20209;-85
2022/04/27 02:09:33;;;;;;;0.73;0.65;;;7.90;99.90;;;;;;5101713;28;20258;-85
2022/04/27 02:12:01;;;;;;;0.70;0.70;;;7.70;99.90;;;;;;5110922;28;20194;-86
2022/04/27 02:14:28;;;;;;;0.60;0.45;;;7.80;99.90;;;;;;5109473;28;20198;-86
2022/04/27 02:16:55;;;;;;;0.30;0.30;;;7.70;99.90;;;;;;5108739;28;20282;-85
2022/04/27 02:19:22;;;;;;;0.30;0.17;;;7.70;99.90;;;;;;5109672;28;20209;-86
2022/04/27 02:21:49;;;;;;;1.05;1.05;;;7.70;99.90;;;;;;5109329;28;20224;-86
2022/04/27 02:24:16;;;;;;;0.40;0.40;;;7.60;99.90;;;;;;5109382;28;20687;-86
2022/04/27 02:26:44;;;;;;;0.30;0.10;;;7.70;99.90;;;;;;5108647;28;20266;-86
2022/04/27 02:29:12;;;;;;;0.82;0.52;;;7.70;99.90;;;;;;5108543;28;20258;-86
2022/04/27 02:31:39;;;;;;;0.30;0.20;;;7.50;99.90;;;;;;5109531;28;20338;-85
2022/04/27 02:34:06;;;;;;;0.30;0.20;;;7.70;99.90;;;;;;5108861;28;20226;-85
2022/04/27 02:36:33;;;;;;;0.50;0.47;;;7.70;99.90;;;;;;5108287;28;20202;-86
2022/04/27 02:39:00;;;;;;;0.70;0.63;;;7.80;99.90;;;;;;5108889;28;20206;-86
2022/04/27 02:41:27;;;;;;;0.30;0.20;;;7.70;99.90;;;;;;5109195;28;20194;-86
2022/04/27 02:43:55;;;;;;;0.30;0.20;;;7.80;99.90;;;;;;5108291;28;20222;-86
2022/04/27 02:46:23;;;;;;;1.10;1.10;;;7.70;99.90;;;;;;5108458;28;20205;-86
2022/04/27 02:51:49;;;;;;;0.40;0.40;;;7.80;99.90;;;;;;5107734;28;20500;-86
2022/04/27 02:54:17;;;;;;;0.30;0.20;;;7.70;99.90;;;;;;5108656;28;20656;-85
2022/04/27 02:56:44;;;;;;;0.57;0.57;;;8.50;99.90;;;;;;5107849;28;20252;-86
2022/04/27 02:59:11;;;;;;;1.30;0.65;;;7.80;99.90;;;;;;5108676;28;20229;-85
2022/04/27 03:01:39;;;;;;;0.55;0.55;;;7.80;99.90;;;;;;5108746;28;20206;-86
2022/04/27 03:04:06;;;;;;;0.40;0.30;;;7.70;99.90;;;;;;5108575;28;20222;-86
2022/04/27 03:06:33;;;;;;;0.40;0.30;;;7.80;99.90;;;;;;5107427;28;20744;-86
2022/04/27 03:09:00;;;;;;;0.88;0.60;;;7.70;99.90;;;;;;5086994;28;20234;-86
2022/04/27 03:11:27;;;;;;;0.82;0.82;;;7.70;99.90;;;;;;5101420;28;20618;-87
2022/04/27 03:13:54;;;;;;;2.13;1.83;;;7.70;99.90;;;;;;5108401;28;20201;-86
2022/04/27 03:16:21;;;;;;;0.30;0.20;;;7.80;99.90;;;;;;5108186;28;20278;-86
2022/04/27 03:18:49;;;;;;;0.30;0.10;;;7.80;99.90;;;;;;5108637;28;20206;-86
2022/04/27 03:21:16;;;;;;;0.40;0.30;;;7.90;99.90;;;;;;5108116;28;20204;-86
2022/04/27 03:23:43;;;;;;;4.43;2.00;;;7.90;99.90;;;;;;5108476;28;20717;-86
2022/04/27 03:26:10;;;;;;;0.40;0.40;;;7.90;99.90;;;;;;5108033;28;20216;-85
2022/04/27 03:28:37;;;;;;;3.75;0.90;;;7.90;99.90;;;;;;5108442;28;20198;-85
2022/04/27 03:31:04;;;;;;;0.30;0.30;;;7.90;99.90;;;;;;5108298;28;20206;-85
2022/04/27 03:33:30;;;;;;;0.30;0.20;;;7.80;99.90;;;;;;5108655;28;20233;-85
2022/04/27 03:36:01;;;;;;;0.30;0.20;;;7.80;99.90;;;;;;5107031;28;20198;-85
2022/04/27 03:38:28;;;;;;;0.30;0.20;;;7.80;99.90;;;;;;5108762;28;20209;-86
2022/04/27 03:40:55;;;;;;;0.30;0.15;;;7.90;99.90;;;;;;5108076;28;20706;-86
2022/04/27 03:43:22;;;;;;;0.30;0.25;;;7.90;99.90;;;;;;5108114;28;20741;-86
2022/04/27 03:45:49;;;;;;;0.30;0.20;;;8.00;99.90;;;;;;5107654;28;20278;-86
2022/04/27 03:48:18;;;;;;;0.40;0.30;;;7.90;99.90;;;;;;5108290;28;20206;-85
2022/04/27 03:50:45;;;;;;;4.75;2.78;;;7.90;99.90;;;;;;5107477;28;20205;-86
2022/04/27 03:53:13;;;;;;;0.30;0.20;;;7.90;99.90;;;;;;5108771;28;20270;-85
2022/04/27 03:55:40;;;;;;;0.52;0.52;;;7.90;99.90;;;;;;5107287;28;20296;-86
2022/04/27 03:58:07;;;;;;;1.88;0.73;;;7.90;99.90;;;;;;5108468;28;20297;-86
2022/04/27 04:00:35;;;;;;;4.45;0.55;;;8.00;99.90;;;;;;5108376;28;20668;-86
2022/04/27 04:03:02;;;;;;;0.63;0.63;;;8.00;99.90;;;;;;5107618;28;20254;-85
2022/04/27 04:05:30;;;;;;;0.68;0.65;;;8.10;99.90;;;;;;5107561;28;20294;-84
2022/04/27 04:07:57;;;;;;;1.23;0.82;;;8.10;99.90;;;;;;5109352;28;20206;-85
2022/04/27 04:10:25;;;;;;;0.68;0.68;;;8.00;99.90;;;;;;5111769;28;20879;-86
2022/04/27 04:12:52;;;;;;;2.95;1.60;;;8.00;99.90;;;;;;5111015;28;20193;-86
2022/04/27 04:15:19;;;;;;;0.30;0.20;;;8.20;99.90;;;;;;5110087;28;20202;-85
2022/04/27 04:17:46;;;;;;;0.80;0.80;;;8.00;99.90;;;;;;5111110;28;20645;-86
2022/04/27 04:20:14;;;;;;;0.40;0.40;;;7.90;99.90;;;;;;5111439;28;20229;-86
2022/04/27 04:22:41;;;;;;;0.60;0.60;;;7.90;99.90;;;;;;5111560;28;20301;-85
2022/04/27 04:30:40;;;;;;;0.30;0.22;;;8.10;99.90;;;;;;5111977;28;20206;-86
2022/04/27 04:33:07;;;;;;;0.30;0.20;;;8.10;99.90;;;;;;5112325;28;20627;-86
2022/04/27 04:35:33;;;;;;;0.57;0.57;;;8.10;99.90;;;;;;5111046;28;20229;-85
2022/04/27 04:38:00;;;;;;;0.30;0.20;;;8.10;99.90;;;;;;5111031;28;20627;-86
2022/04/27 04:40:27;;;;;;;0.30;0.20;;;8.10;99.90;;;;;;5111006;28;20652;-86
2022/04/27 04:42:56;;;;;;;2.40;1.57;;;8.20;99.90;;;;;;5111101;28;20767;-85
2022/04/27 04:45:23;;;;;;;0.43;0.43;;;8.20;99.90;;;;;;5111015;28;20758;-86
2022/04/27 04:47:50;;;;;;;0.37;0.30;;;8.10;99.90;;;;;;5110136;28;20740;-86
2022/04/27 04:50:17;;;;;;;1.10;0.65;;;8.20;99.90;;;;;;5110679;28;20682;-86
2022/04/27 04:52:45;;;;;;;0.93;0.93;;;8.00;99.90;;;;;;5110861;28;20277;-85
2022/04/27 04:55:13;;;;;;;0.43;0.43;;;8.30;99.90;;;;;;5110371;28;20615;-86
2022/04/27 04:57:40;;;;;;;0.60;0.60;;;8.10;99.90;;;;;;5111167;28;21176;-85
2022/04/27 05:00:10;;;;;;;0.30;0.20;;;8.20;99.90;;;;;;5111287;28;20292;-85
2022/04/27 05:02:37;;;;;;;0.30;0.20;;;8.20;99.90;;;;;;5111721;28;20658;-85
2022/04/27 05:05:05;;;;;;;0.40;0.30;;;8.30;99.90;;;;;;5111211;28;20639;-86
2022/04/27 05:07:32;;;;;;;1.37;0.53;;;8.30;99.90;;;;;;5110853;28;20270;-86
2022/04/27 05:09:59;;;;;;;0.47;0.47;;;8.30;99.90;;;;;;5111177;28;20722;-86
2022/04/27 05:12:26;;;;;;;0.30;0.10;;;8.20;99.90;;;;;;5111370;28;20213;-86
2022/04/27 05:14:54;;;;;;;0.40;0.30;;;8.10;99.90;;;;;;5112257;28;20201;-85
2022/04/27 05:17:23;;;;;;;0.40;0.30;;;8.10;99.90;;;;;;5108416;28;20272;-86
2022/04/27 05:19:52;;;;;;;0.40;0.40;;;8.10;99.90;;;;;;5108984;28;20206;-85
2022/04/27 05:22:19;;;;;;;0.30;0.15;;;8.10;99.90;;;;;;5110374;28;20206;-86
2022/04/27 05:24:46;;;;;;;0.55;0.52;;;7.90;99.90;;;;;;5109860;28;21345;-86
2022/04/27 05:27:13;;;;;;;0.30;0.20;;;8.00;99.90;;;;;;5109188;28;20201;-85
2022/04/27 05:32:27;;;;;;;3.90;1.40;;;8.00;99.90;;;;;;5109855;28;20225;-85
2022/04/27 05:34:54;;;;;;;1.05;0.65;;;8.00;99.90;;;;;;5111099;28;20204;-85
2022/04/27 05:37:21;;;;;;;0.30;0.20;;;8.00;99.90;;;;;;5110026;28;20704;-85
2022/04/27 05:39:48;;;;;;;0.30;0.20;;;8.00;99.90;;;;;;5110774;28;20229;-85
2022/04/27 05:42:15;;;;;;;0.30;0.20;;;8.10;99.90;;;;;;5110059;28;20290;-86
2022/04/27 05:44:42;;;;;;;2.83;1.30;;;8.10;99.90;;;;;;5110237;28;20218;-85
2022/04/27 05:47:09;;;;;;;0.40;0.30;;;8.20;99.90;;;;;;5109718;28;20202;-85
2022/04/27 05:49:37;;;;;;;0.65;0.65;;;8.20;99.90;;;;;;5109626;28;20210;-85
2022/04/27 05:52:05;;;;;;;0.30;0.10;;;8.20;99.90;;;;;;5110252;28;20208;-86
2022/04/27 05:54:31;;;;;;;3.15;2.95;;;8.20;99.90;;;;;;5109533;28;20230;-86
2022/04/27 05:56:58;;;;;;;0.30;0.17;;;8.20;99.90;;;;;;5109790;28;20226;-85
2022/04/27 05:59:25;;;;;;;0.88;0.38;;;8.20;99.90;;;;;;5109347;28;20810;-86
2022/04/27 06:01:52;;;;;;;0.30;0.20;;;8.30;99.90;;;;;;5109391;28;20901;-86
2022/04/27 06:04:19;;;;;;;1.40;0.90;;;8.30;99.90;;;;;;5109817;28;20655;-86
2022/04/27 06:06:48;;;;;;;0.55;0.55;;;8.50;99.90;;;;;;5107574;28;20234;-85
2022/04/27 06:09:15;;;;;;;0.50;0.47;;;8.50;99.90;;;;;;5107940;28;20206;-86
2022/04/27 06:11:41;;;;;;;0.90;0.90;;;8.50;99.90;;;;;;5109263;28;20623;-85
2022/04/27 06:14:08;;;;;;;0.30;0.23;;;8.50;99.90;;;;;;5109425;28;21177;-86
2022/04/27 06:16:35;;;;;;;3.50;0.83;;;8.50;99.90;;;;;;5109197;28;21060;-86
2022/04/27 06:19:03;;;;;;;0.40;0.30;;;8.40;99.90;;;;;;5109660;28;21344;-86
2022/04/27 06:21:32;;;;;;;0.75;0.32;;;8.00;99.90;;;;;;5109437;28;20202;-86
2022/04/27 06:24:04;;;;;;;0.57;0.57;;;8.40;99.90;;;;;;5109406;28;20218;-85
2022/04/27 06:26:33;;;;;;;0.30;0.10;;;8.50;99.90;;;;;;5109234;28;21015;-85
2022/04/27 06:29:00;;;;;;;0.30;0.30;;;8.60;99.90;;;;;;5108516;28;20251;-86
2022/04/27 06:31:26;;;;;;;1.17;0.47;;;8.70;99.90;;;;;;5108143;28;20681;-86
2022/04/27 06:33:53;;;;;;;0.50;0.50;;;8.70;99.90;;;;;;5107648;28;20731;-86
2022/04/27 06:36:20;;;;;;;0.30;0.30;;;8.80;99.90;;;;;;5108918;28;20626;-86
2022/04/27 06:38:47;;;;;;;0.43;0.43;;;8.70;99.90;;;;;;5108911;28;20748;-86
2022/04/27 06:41:15;;;;;;;0.63;0.60;;;8.70;99.90;;;;;;5108530;28;21265;-87
2022/04/27 06:43:42;;;;;;;0.50;0.50;;;8.80;99.90;;;;;;5109066;28;20700;-86
2022/04/27 06:46:09;;;;;;;1.10;1.10;;;8.70;99.90;;;;;;5108838;28;20820;-86
2022/04/27 06:48:36;;;;;;;0.30;0.10;;;8.70;99.90;;;;;;5108562;28;21173;-86
2022/04/27 06:51:04;;;;;;;0.30;0.10;;;8.70;99.90;;;;;;5109046;28;20635;-86
2022/04/27 06:53:31;;;;;;;1.13;1.05;;;8.60;99.90;;;;;;5108768;28;21446;-86
2022/04/27 06:55:58;;;;;;;0.75;0.75;;;8.60;99.90;;;;;;5107715;28;20226;-87
2022/04/27 06:58:26;;;;;;;0.30;0.30;;;8.60;99.90;;;;;;5108846;28;20197;-85
2022/04/27 07:00:53;;;;;;;0.63;0.63;;;8.40;99.90;;;;;;5108564;28;20218;-86
2022/04/27 07:03:20;;;;;;;1.07;0.40;;;8.50;99.90;;;;;;5109023;28;20206;-86
2022/04/27 07:05:47;;;;;;;0.53;0.53;;;8.60;99.90;;;;;;5108047;28;20626;-86
2022/04/27 07:08:14;;;;;;;0.40;0.20;;;8.60;99.90;;;;;;5108201;28;20631;-86
2022/04/27 07:10:41;;;;;;;0.65;0.65;;;8.60;99.90;;;;;;5107932;28;20691;-86
2022/04/27 07:13:08;;;;;;;0.30;0.20;;;8.70;99.90;;;;;;5108506;27;20221;-85
2022/04/27 07:15:36;;;;;;;0.30;0.20;;;8.90;99.90;;;;;;5108332;28;20619;-86
2022/04/27 07:18:04;;;;;;;0.90;0.73;;;8.70;99.90;;;;;;5108368;28;20654;-86
2022/04/27 07:20:31;;;;;;;1.13;1.13;;;8.80;99.90;;;;;;5107993;28;20639;-86
2022/04/27 07:22:58;;;;;;;0.30;0.20;;;8.70;99.90;;;;;;5107862;28;20201;-86
2022/04/27 07:25:24;;;;;;;0.73;0.73;;;8.80;99.90;;;;;;5107635;28;20647;-85
2022/04/27 07:27:51;;;;;;;1.80;1.70;;;8.80;99.90;;;;;;5108153;28;21016;-87
2022/04/27 07:30:20;;;;;;;1.27;1.17;;;8.70;99.90;;;;;;5108054;28;20627;-86
2022/04/27 07:32:48;;;;;;;0.30;0.20;;;8.70;99.90;;;;;;5108137;27;20646;-86
2022/04/27 07:35:18;;;;;;;1.30;1.20;;;8.70;99.90;;;;;;5108411;28;20229;-86
2022/04/27 07:37:45;;;;;;;0.70;0.70;;;8.60;99.90;;;;;;5108190;28;21170;-87
2022/04/27 07:40:13;;;;;;;2.60;2.40;;;8.70;99.90;;;;;;5108539;28;20731;-85
2022/04/27 07:42:41;;;;;;;0.35;0.35;;;8.80;99.90;;;;;;5109677;28;20630;-86
2022/04/27 07:45:08;;;;;;;0.40;0.30;;;8.80;99.90;;;;;;5112674;27;20650;-86
2022/04/27 07:47:42;;;;;;;0.90;0.83;;;8.80;99.90;;;;;;5111971;28;20650;-86
2022/04/27 07:50:14;;;;;;;0.30;0.20;;;8.80;99.90;;;;;;5112607;28;20663;-87
2022/04/27 07:52:41;;;;;;;0.40;0.30;;;9.10;99.90;;;;;;5113317;28;20619;-86
2022/04/27 07:55:09;;;;;;;0.40;0.40;;;9.30;99.90;;;;;;5111643;28;20666;-86
2022/04/27 07:57:37;;;;;;;0.50;0.30;;;9.60;99.90;;;;;;5112431;28;20615;-85
2022/04/27 08:00:07;;;;;;;0.30;0.27;;;9.80;99.90;;;;;;5112606;28;20619;-87
2022/04/27 08:02:35;;;;;;;0.30;0.13;;;9.90;99.90;;;;;;5112525;28;20676;-86
2022/04/27 08:05:02;;;;;;;1.23;1.13;;;9.80;99.90;;;;;;5112566;28;20658;-86
2022/04/27 08:07:37;;;;;;;0.30;0.20;;;9.80;99.90;;;;;;5105499;28;20612;-86
2022/04/27 08:10:12;;;;;;;0.70;0.70;;;9.80;99.90;;;;;;5111976;28;20630;-85
2022/04/27 08:12:39;;;;;;;0.77;0.63;;;9.90;99.90;;;;;;5111930;28;20623;-86
2022/04/27 08:15:07;;;;;;;0.50;0.50;;;10.20;99.90;;;;;;5111770;28;20641;-86
2022/04/27 08:17:34;;;;;;;0.40;0.40;;;10.00;99.90;;;;;;5111535;28;20619;-85
2022/04/27 08:22:48;;;;;;;2.23;1.00;;;10.20;99.90;;;;;;5111989;28;21295;-87
2022/04/27 08:25:15;;;;;;;0.40;0.40;;;10.20;99.90;;;;;;5110661;28;20647;-86
2022/04/27 08:27:42;;;;;;;0.97;0.90;;;10.00;99.90;;;;;;5111262;28;20673;-86
2022/04/27 08:30:09;;;;;;;0.63;0.47;;;10.00;99.90;;;;;;5112240;28;21165;-85
2022/04/27 08:32:36;;;;;;;0.30;0.20;;;10.10;99.90;;;;;;5111540;28;20650;-85
2022/04/27 08:35:03;;;;;;;0.80;0.67;;;10.20;99.90;;;;;;5111532;28;20616;-85
2022/04/27 08:37:30;;;;;;;2.53;1.63;;;10.40;99.90;;;;;;5110624;28;20684;-85
2022/04/27 08:40:01;;;;;;;0.40;0.30;;;10.30;99.90;;;;;;5111413;28;20632;-84
2022/04/27 08:42:28;;;;;;;0.73;0.60;;;10.40;99.90;;;;;;5111311;28;20627;-85
2022/04/27 08:44:55;;;;;;;1.53;1.53;;;10.40;99.90;;;;;;5111067;28;20715;-84
2022/04/27 08:47:25;;;;;;;0.30;0.30;;;10.50;99.90;;;;;;5111099;28;20718;-85
2022/04/27 08:49:52;;;;;;;0.30;0.10;;;10.60;99.90;;;;;;5111578;28;21001;-85
2022/04/27 08:52:20;;;;;;;0.30;0.17;;;10.80;99.90;;;;;;5111637;28;20623;-85
2022/04/27 08:54:49;;;;;;;0.37;0.37;;;11.00;99.90;;;;;;5110964;28;20619;-85
2022/04/27 08:57:17;;;;;;;1.13;0.67;;;11.00;99.90;;;;;;5110460;28;20634;-85
2022/04/27 08:59:46;;;;;;;1.10;0.57;;;11.00;99.90;;;;;;5111254;28;20629;-85
2022/04/27 09:02:26;;;;;;;0.30;0.30;;;11.10;99.90;;;;;;5110514;28;21220;-84
2022/04/27 09:05:12;;;;;;;1.10;1.10;;;11.10;99.90;;;;;;5110534;28;20652;-85
2022/04/27 09:07:40;;;;;;;3.70;1.00;;;11.30;99.90;;;;;;5097908;28;20620;-84
2022/04/27 09:10:09;;;;;;;1.33;1.10;;;11.50;99.90;;;;;;5111040;28;21083;-84
2022/04/27 09:12:44;;;;;;;1.13;0.83;;;11.40;99.70;;;;;;5110617;28;21200;-84
2022/04/27 09:15:12;;;;;;;0.77;0.77;;;11.50;99.90;;;;;;5109867;28;20662;-85
2022/04/27 09:23:21;;;;;;;0.50;0.50;;;11.90;99.90;;;;;;5110747;28;20609;-84
2022/04/27 09:25:48;;;;;;;1.07;1.00;;;12.00;99.80;;;;;;5109911;28;20752;-85
2022/04/27 09:28:17;;;;;;;0.30;0.20;;;12.20;99.50;;;;;;5108940;28;20725;-83
2022/04/27 09:30:45;;;;;;;0.50;0.40;;;12.30;98.90;;;;;;5110587;28;20665;-85
2022/04/27 09:33:12;;;;;;;0.83;0.83;;;12.40;97.10;;;;;;5110472;28;21278;-83
2022/04/27 09:35:39;;;;;;;0.83;0.83;;;12.70;99.90;;;;;;5109815;28;20619;-84
2022/04/27 09:38:14;;;;;;;1.50;1.20;;;12.50;99.40;;;;;;5118245;27;20621;-84
2022/04/27 09:40:46;;;;;;;0.37;0.37;;;12.40;97.50;;;;;;5110452;27;20719;-84
2022/04/27 09:43:15;;;;;;;0.40;0.30;;;12.50;97.10;;;;;;5109821;28;21169;-84
2022/04/27 09:45:44;;;;;;;0.40;0.30;;;12.60;97.60;;;;;;5109356;28;20742;-84
2022/04/27 09:48:19;;;;;;;0.57;0.57;;;12.60;99.90;;;;;;5109865;28;20623;-84
2022/04/27 09:50:48;;;;;;;0.50;0.30;;;12.60;97.60;;;;;;5109197;28;20630;-84
2022/04/27 09:53:16;;;;;;;0.70;0.70;;;12.80;97.40;;;;;;5110998;27;21201;-83
2022/04/27 09:55:46;;;;;;;0.40;0.23;;;12.90;96.70;;;;;;5109226;28;20633;-83
2022/04/27 09:58:14;;;;;;;0.67;0.67;;;12.80;96.30;;;;;;5109239;28;20659;-84
2022/04/27 10:00:44;;;;;;;1.27;1.07;;;12.70;96.60;;;;;;5110189;28;20742;-84
2022/04/27 10:03:14;;;;;;;1.00;0.70;;;12.80;96.40;;;;;;5109869;28;20624;-83
2022/04/27 10:05:41;;;;;;;0.40;0.40;;;12.90;96.90;;;;;;5111021;27;20654;-84
2022/04/27 10:08:09;;;;;;;0.47;0.40;;;13.00;96.20;;;;;;5109395;28;21061;-84
2022/04/27 10:10:38;;;;;;;0.95;0.90;;;12.80;99.90;;;;;;5107990;28;20736;-83
2022/04/27 10:13:08;;;;;;;8.33;0.80;;;13.00;95.20;;;;;;5109201;28;20208;-85
2022/04/27 10:15:36;;;;;;;0.80;0.40;;;13.10;95.40;;;;;;5108883;28;20679;-84
2022/04/27 10:18:05;;;;;;;0.70;0.70;;;13.10;95.10;;;;;;5108863;28;20626;-84
2022/04/27 10:20:33;;;;;;;1.87;1.30;;;13.10;95.10;;;;;;5109600;28;21174;-84
2022/04/27 10:23:24;;;;;;;0.40;0.30;;;13.20;95.00;;;;;;5109213;28;20658;-84
2022/04/27 10:26:11;;;;;;;0.33;0.23;;;13.30;95.30;;;;;;5109104;27;21220;-83
2022/04/27 10:28:40;;;;;;;0.60;0.50;;;13.40;94.60;;;;;;5109124;28;20623;-84
2022/04/27 10:31:08;;;;;;;0.50;0.50;;;13.40;94.90;;;;;;5109599;28;20663;-84
2022/04/27 10:33:51;;;;;;;0.93;0.40;;;13.40;94.60;;;;;;5108738;28;20610;-84
2022/04/27 10:36:38;;;;;;;0.60;0.50;;;13.40;94.30;;;;;;5109433;28;21006;-85
2022/04/27 10:39:19;;;;;;;0.40;0.30;;;13.50;94.30;;;;;;5109191;28;20630;-84
2022/04/27 10:42:16;;;;;;;0.50;0.50;;;13.40;93.80;;;;;;5108825;28;20630;-84
2022/04/27 10:45:08;;;;;;;0.43;0.40;;;13.10;99.90;;;;;;5108980;28;20647;-85
2022/04/27 10:47:36;;;;;;;0.97;0.70;;;13.10;98.00;;;;;;5109228;28;20716;-85
2022/04/27 10:50:29;;;;;;;0.60;0.43;;;13.30;93.70;;;;;;5108982;28;20619;-85
2022/04/27 10:53:00;;;;;;;0.93;0.43;;;13.20;93.40;;;;;;5107769;28;21221;-85
2022/04/27 10:55:54;;;;;;;0.40;0.30;;;13.10;93.60;;;;;;5107660;28;20616;-84
2022/04/27 10:58:32;;;;;;;0.57;0.43;;;13.00;93.50;;;;;;5108691;28;20634;-84
2022/04/27 11:01:32;;;;;;;0.40;0.37;;;12.90;92.50;;;;;;5108537;28;20636;-83
2022/04/27 11:04:07;;;;;;;0.30;0.10;;;12.60;98.00;;;;;;5108702;28;20748;-84
2022/04/27 11:10:20;;;;;;;0.63;0.40;;;15.60;94.30;;;;;;5162964;27;20306;-83
2022/04/27 11:12:50;;;;;;;0.30;0.27;;;12.80;92.30;;;;;;5146861;27;20617;-82
2022/04/27 11:15:21;;;;;;;0.40;0.20;;;12.70;92.80;;;;;;5145458;27;20665;-83
2022/04/27 11:17:55;;;;;;;0.50;0.50;;;12.90;98.80;;;;;;5145821;27;20681;-82
2022/04/27 11:20:30;;;;;;;0.30;0.20;;;12.90;98.50;;;;;;5146315;27;20622;-83
2022/04/27 11:22:58;;;;;;;0.50;0.50;;;12.90;92.90;;;;;;5146116;27;20682;-82
2022/04/27 11:25:28;;;;;;;0.30;0.17;;;12.90;92.70;;;;;;5145878;27;20653;-83
2022/04/27 11:27:56;;;;;;;0.97;0.97;;;12.90;92.80;;;;;;5145818;27;20664;-83
2022/04/27 11:30:25;;;;;;;0.47;0.47;;;13.00;93.20;;;;;;5144495;27;20624;-83
2022/04/27 11:32:53;;;;;;;0.30;0.20;;;13.50;95.70;;;;;;5133824;27;20627;-83
2022/04/27 11:35:23;;;;;;;0.40;0.40;;;13.20;92.00;;;;;;5132192;27;20625;-83
2022/04/27 11:37:52;;;;;;;0.30;0.30;;;13.20;92.20;;;;;;5146166;27;20728;-83
2022/04/27 11:40:25;;;;;;;1.27;0.50;;;13.40;92.20;;;;;;5146354;27;20604;-84
2022/04/27 11:42:53;;;;;;;0.97;0.83;;;13.40;92.30;;;;;;5130745;27;20669;-83
2022/04/27 11:45:22;;;;;;;0.60;0.50;;;14.00;93.80;;;;;;5121847;27;21011;-82
2022/04/27 11:47:59;;;;;;;0.40;0.33;;;13.90;91.60;;;;;;5124256;27;20809;-82
2022/04/27 11:50:27;;;;;;;0.40;0.20;;;14.20;96.70;;;;;;5123249;27;20683;-82
2022/04/27 11:53:01;;;;;;;1.40;1.20;;;14.30;90.20;;;;;;5123897;27;20619;-83
2022/04/27 11:55:28;;;;;;;0.47;0.40;;;14.40;90.80;;;;;;5122185;27;20631;-84
2022/04/27 11:57:55;;;;;;;0.83;0.57;;;16.10;95.20;;;;;;5123662;27;20627;-83
2022/04/27 12:00:26;;;;;;;0.40;0.20;;;16.00;90.30;;;;;;5122905;27;20668;-83
2022/04/27 12:02:54;;;;;;;0.40;0.40;;;17.60;86.70;;;;;;5124578;27;20715;-84
2022/04/27 12:05:30;;;;;;;0.37;0.27;;;18.70;83.00;;;;;;5122280;27;20622;-83
2022/04/27 12:07:57;;;;;;;1.00;0.50;;;19.70;76.20;;;;;;5126630;27;20661;-85
2022/04/27 12:10:24;;;;;;;0.63;0.63;;;;;;;;;;5123528;27;20662;-84
2022/04/27 12:12:51;;;;;;;0.40;0.37;;;21.40;66.70;;;;;;5140239;27;20677;-83
2022/04/27 12:15:27;;;;;;;1.17;0.53;;;22.00;63.70;;;;;;5144416;27;20681;-86
2022/04/27 12:17:56;;;;;;;0.70;0.63;;;22.20;65.10;;;;;;5145388;27;20699;-85
2022/04/27 12:20:29;;;;;;;0.83;0.60;;;22.00;58.00;;;;;;5136110;27;21177;-85
2022/04/27 12:22:57;;;;;;;0.87;0.87;;;21.60;58.50;;;;;;5130431;27;20627;-85
2022/04/27 12:25:36;;;;;;;1.00;0.80;;;22.20;58.70;;;;;;5130220;27;20634;-84
2022/04/27 12:28:04;;;;;;;0.80;0.80;;;23.20;57.00;;;;;;5131300;27;20650;-85
2022/04/27 12:30:40;;;;;;;0.97;0.90;;;23.80;57.50;;;;;;5131475;27;20949;-84
2022/04/27 12:33:07;;;;;;;0.73;0.73;;;;;;;;;;5130898;27;20721;-83
2022/04/27 12:38:20;;;;;;;1.47;1.37;;;24.70;54.70;;;;;;5130858;27;20751;-84
2022/04/27 12:40:47;;;;;;;0.63;0.63;;;24.60;58.80;;;;;;5131242;27;20623;-84
2022/04/27 12:43:14;;;;;;;1.13;1.03;;;24.30;51.70;;;;;;5131041;27;20611;-83
2022/04/27 12:46:03;;;;;;;0.90;0.90;;;24.80;51.30;;;;;;5130716;27;20622;-83
2022/04/27 12:48:31;;;;;;;1.27;1.20;;;24.90;50.20;;;;;;5120449;27;20659;-84
2022/04/27 12:50:59;;;;;;;1.57;0.80;;;25.10;49.80;;;;;;5111874;27;20623;-84
2022/04/27 12:53:26;;;;;;;1.33;0.70;;;25.20;50.80;;;;;;5130564;27;20625;-85
2022/04/27 12:56:19;;;;;;;0.67;0.40;;;26.00;47.90;;;;;;5129857;27;20638;-85
2022/04/27 12:59:06;;;;;;;1.30;0.93;;;25.90;48.20;;;;;;5127923;27;20631;-85
2022/04/27 13:01:34;;;;;;;0.77;0.77;;;25.90;47.10;;;;;;5130732;27;20723;-84
2022/04/27 13:04:02;;;;;;;0.60;0.60;;;26.40;47.00;;;;;;5130975;27;20642;-84
2022/04/27 13:06:30;;;;;;;0.70;0.63;;;25.30;46.40;;;;;;5119909;27;21125;-85
2022/04/27 13:08:57;;;;;;;0.87;0.60;;;24.40;47.40;;;;;;5125699;27;21073;-84
2022/04/27 13:14:08;;;;;;;0.90;0.80;;;21.40;50.10;;;;;;5130610;27;20635;-83
2022/04/27 13:16:36;;;;;;;2.00;1.57;;;20.20;52.50;;;;;;5129398;27;20676;-83
2022/04/27 13:19:04;;;;;;;0.50;0.50;;;18.90;59.30;;;;;;5130193;27;20658;-84
2022/04/27 13:21:30;;;;;;;0.47;0.43;;;19.00;54.10;;;;;;5129717;27;20623;-83
2022/04/27 13:23:57;;;;;;;0.50;0.50;;;18.50;54.20;;;;;;5130860;27;20642;-84
2022/04/27 13:26:24;;;;;;;0.30;0.20;;;17.60;63.90;;;;;;5130025;27;20721;-83
2022/04/27 13:28:51;;;;;;;0.63;0.63;;;17.60;55.80;;;;;;5129825;27;20654;-85
2022/04/27 13:31:18;;;;;;;0.30;0.30;;;;;;;;;;5129866;27;20661;-84
2022/04/27 13:33:47;;;;;;;0.30;0.30;;;16.60;73.20;;;;;;5121957;27;21024;-84